CheckWX is a tool to help pilots better visualize weather data.  It is not intended as a substitute for an official pre-flight weather briefing.

16:55:37 UTC

KTVL TAF
Lake Tahoe Airport
South Lake Tahoe, California, USA
KTVL 181120Z 1812/1912 VRB03KT P6SM FEW100 FM181800 03007KT P6SM SKC FM190200 VRB03KT P6SM SKC

Jun-18@
12:00 UTC

Jun-18 @ 12:00 UTC

Jun-18@
18:00 UTC

Jun-18 @ 18:00 UTC

KTVL 181120Z 1812/1912 VRB03KT P6SM FEW100
Wind
  • Variable at 3 KTS
Cloud Levels
  • Few at 10,000' AGL

Jun-18@
18:00 UTC

Jun-18 @ 18:00 UTC

Jun-19@
02:00 UTC

Jun-19 @ 02:00 UTC

FM181800 03007KT P6SM SKC

From

From Standard forecast or significant change

Wind
  • 030° at 7 KTS
Cloud Levels
  • Clear skies

Jun-19@
02:00 UTC

Jun-19 @ 02:00 UTC

Jun-19@
12:00 UTC

Jun-19 @ 12:00 UTC

FM190200 VRB03KT P6SM SKC

From

From Standard forecast or significant change

Wind
  • Variable at 3 KTS
Cloud Levels
  • Clear skies